sensor_id;sensor_type;location;lat;lon;timestamp;temperature;humidity
10538;DHT22;5317;49.048;8.468;2022-09-14T00:01:24;23.90;71.70
10538;DHT22;5317;49.048;8.468;2022-09-14T00:03:54;23.90;72.00
10538;DHT22;5317;49.048;8.468;2022-09-14T00:06:23;23.90;72.40
10538;DHT22;5317;49.048;8.468;2022-09-14T00:08:52;23.90;72.80
10538;DHT22;5317;49.048;8.468;2022-09-14T00:11:22;23.90;73.10
10538;DHT22;5317;49.048;8.468;2022-09-14T00:13:53;23.90;73.50
10538;DHT22;5317;49.048;8.468;2022-09-14T00:16:24;23.80;73.40
10538;DHT22;5317;49.048;8.468;2022-09-14T00:18:54;23.90;73.60
10538;DHT22;5317;49.048;8.468;2022-09-14T00:21:24;23.80;73.70
10538;DHT22;5317;49.048;8.468;2022-09-14T00:23:51;23.80;73.90
10538;DHT22;5317;49.048;8.468;2022-09-14T00:26:20;23.80;73.90
10538;DHT22;5317;49.048;8.468;2022-09-14T00:28:50;23.80;74.40
10538;DHT22;5317;49.048;8.468;2022-09-14T00:31:24;23.80;74.70
10538;DHT22;5317;49.048;8.468;2022-09-14T00:33:53;23.80;74.40
10538;DHT22;5317;49.048;8.468;2022-09-14T00:36:22;23.70;74.30
10538;DHT22;5317;49.048;8.468;2022-09-14T00:38:51;23.70;73.90
10538;DHT22;5317;49.048;8.468;2022-09-14T00:41:22;23.70;73.80
10538;DHT22;5317;49.048;8.468;2022-09-14T00:43:58;23.70;74.10
10538;DHT22;5317;49.048;8.468;2022-09-14T00:46:29;23.70;74.40
10538;DHT22;5317;49.048;8.468;2022-09-14T00:49:02;23.60;74.10
10538;DHT22;5317;49.048;8.468;2022-09-14T00:51:33;23.70;75.00
10538;DHT22;5317;49.048;8.468;2022-09-14T00:54:02;23.60;74.40
10538;DHT22;5317;49.048;8.468;2022-09-14T00:56:31;23.60;74.80
10538;DHT22;5317;49.048;8.468;2022-09-14T00:59:04;23.60;74.60
10538;DHT22;5317;49.048;8.468;2022-09-14T01:01:37;23.60;75.00
10538;DHT22;5317;49.048;8.468;2022-09-14T01:04:07;23.60;75.00
10538;DHT22;5317;49.048;8.468;2022-09-14T01:06:38;23.60;75.00
10538;DHT22;5317;49.048;8.468;2022-09-14T01:09:21;23.60;75.40
10538;DHT22;5317;49.048;8.468;2022-09-14T01:12:07;23.60;75.50
10538;DHT22;5317;49.048;8.468;2022-09-14T01:14:49;23.60;75.50
10538;DHT22;5317;49.048;8.468;2022-09-14T01:17:32;23.60;75.60
10538;DHT22;5317;49.048;8.468;2022-09-14T01:20:18;23.50;75.40
10538;DHT22;5317;49.048;8.468;2022-09-14T01:22:58;23.60;76.10
10538;DHT22;5317;49.048;8.468;2022-09-14T01:28:37;23.40;76.50
10538;DHT22;5317;49.048;8.468;2022-09-14T01:31:14;23.20;77.00
10538;DHT22;5317;49.048;8.468;2022-09-14T01:33:52;23.20;77.20
10538;DHT22;5317;49.048;8.468;2022-09-14T01:36:28;23.10;78.00
10538;DHT22;5317;49.048;8.468;2022-09-14T01:39:00;23.00;78.20
10538;DHT22;5317;49.048;8.468;2022-09-14T01:41:29;22.90;79.00
10538;DHT22;5317;49.048;8.468;2022-09-14T01:44:01;22.80;79.60
10538;DHT22;5317;49.048;8.468;2022-09-14T01:46:38;22.70;80.30
10538;DHT22;5317;49.048;8.468;2022-09-14T01:49:12;22.70;80.10
10538;DHT22;5317;49.048;8.468;2022-09-14T01:51:46;22.80;80.70
10538;DHT22;5317;49.048;8.468;2022-09-14T01:54:19;22.90;80.40
10538;DHT22;5317;49.048;8.468;2022-09-14T01:56:55;22.90;80.10
10538;DHT22;5317;49.048;8.468;2022-09-14T01:59:30;22.90;80.60
10538;DHT22;5317;49.048;8.468;2022-09-14T02:02:03;22.90;80.50
10538;DHT22;5317;49.048;8.468;2022-09-14T02:04:39;23.00;80.10
10538;DHT22;5317;49.048;8.468;2022-09-14T02:07:11;23.00;80.40
10538;DHT22;5317;49.048;8.468;2022-09-14T02:09:39;23.10;80.10
10538;DHT22;5317;49.048;8.468;2022-09-14T02:12:10;23.10;80.30
10538;DHT22;5317;49.048;8.468;2022-09-14T02:14:38;23.00;80.10
10538;DHT22;5317;49.048;8.468;2022-09-14T02:17:06;23.00;80.40
10538;DHT22;5317;49.048;8.468;2022-09-14T02:19:37;23.00;80.40
10538;DHT22;5317;49.048;8.468;2022-09-14T02:22:10;23.00;80.40
10538;DHT22;5317;49.048;8.468;2022-09-14T02:24:37;23.00;80.20
10538;DHT22;5317;49.048;8.468;2022-09-14T02:27:05;22.90;80.20
10538;DHT22;5317;49.048;8.468;2022-09-14T02:29:33;22.90;80.60
10538;DHT22;5317;49.048;8.468;2022-09-14T02:32:14;22.90;81.20
10538;DHT22;5317;49.048;8.468;2022-09-14T02:34:54;22.80;82.00
10538;DHT22;5317;49.048;8.468;2022-09-14T02:37:38;22.70;82.00
10538;DHT22;5317;49.048;8.468;2022-09-14T02:40:18;22.70;82.20
10538;DHT22;5317;49.048;8.468;2022-09-14T02:43:04;22.70;82.00
10538;DHT22;5317;49.048;8.468;2022-09-14T02:45:42;22.80;82.00
10538;DHT22;5317;49.048;8.468;2022-09-14T02:48:20;22.80;81.90
10538;DHT22;5317;49.048;8.468;2022-09-14T02:50:59;22.80;82.20
10538;DHT22;5317;49.048;8.468;2022-09-14T02:53:36;22.80;82.20
10538;DHT22;5317;49.048;8.468;2022-09-14T02:56:09;22.80;81.70
10538;DHT22;5317;49.048;8.468;2022-09-14T02:58:39;22.80;81.80
10538;DHT22;5317;49.048;8.468;2022-09-14T03:01:10;22.80;81.60
10538;DHT22;5317;49.048;8.468;2022-09-14T03:03:40;22.80;81.90
10538;DHT22;5317;49.048;8.468;2022-09-14T03:06:08;22.80;81.80
10538;DHT22;5317;49.048;8.468;2022-09-14T03:08:35;22.80;81.70
10538;DHT22;5317;49.048;8.468;2022-09-14T03:11:04;22.80;82.00
10538;DHT22;5317;49.048;8.468;2022-09-14T03:13:32;22.80;82.20
10538;DHT22;5317;49.048;8.468;2022-09-14T03:16:03;22.80;82.10
10538;DHT22;5317;49.048;8.468;2022-09-14T03:18:32;22.80;82.00
10538;DHT22;5317;49.048;8.468;2022-09-14T03:21:04;22.80;81.80
10538;DHT22;5317;49.048;8.468;2022-09-14T03:23:35;22.80;81.90
10538;DHT22;5317;49.048;8.468;2022-09-14T03:26:06;22.80;82.00
10538;DHT22;5317;49.048;8.468;2022-09-14T03:28:34;22.80;82.10
10538;DHT22;5317;49.048;8.468;2022-09-14T03:31:03;22.80;81.90
10538;DHT22;5317;49.048;8.468;2022-09-14T03:33:32;22.80;81.90
10538;DHT22;5317;49.048;8.468;2022-09-14T03:36:00;22.80;82.00
10538;DHT22;5317;49.048;8.468;2022-09-14T03:38:37;22.80;82.00
10538;DHT22;5317;49.048;8.468;2022-09-14T03:41:07;22.80;82.00
10538;DHT22;5317;49.048;8.468;2022-09-14T03:43:38;22.80;82.40
10538;DHT22;5317;49.048;8.468;2022-09-14T03:46:06;22.80;82.50
10538;DHT22;5317;49.048;8.468;2022-09-14T03:48:34;22.70;82.50
10538;DHT22;5317;49.048;8.468;2022-09-14T03:51:02;22.80;82.40
10538;DHT22;5317;49.048;8.468;2022-09-14T03:53:33;22.70;82.40
10538;DHT22;5317;49.048;8.468;2022-09-14T03:56:05;22.80;82.50
10538;DHT22;5317;49.048;8.468;2022-09-14T03:58:33;22.70;82.50
10538;DHT22;5317;49.048;8.468;2022-09-14T04:01:04;22.70;83.20
10538;DHT22;5317;49.048;8.468;2022-09-14T04:03:32;22.70;82.80
10538;DHT22;5317;49.048;8.468;2022-09-14T04:06:00;22.70;82.60
10538;DHT22;5317;49.048;8.468;2022-09-14T04:08:30;22.70;82.30
10538;DHT22;5317;49.048;8.468;2022-09-14T04:10:59;22.70;82.50
10538;DHT22;5317;49.048;8.468;2022-09-14T04:13:32;22.60;82.90
10538;DHT22;5317;49.048;8.468;2022-09-14T04:16:00;22.50;83.00
10538;DHT22;5317;49.048;8.468;2022-09-14T04:18:27;22.40;83.50
10538;DHT22;5317;49.048;8.468;2022-09-14T04:20:56;22.50;83.80
10538;DHT22;5317;49.048;8.468;2022-09-14T04:23:24;22.50;83.80
10538;DHT22;5317;49.048;8.468;2022-09-14T04:25:54;22.50;83.50
10538;DHT22;5317;49.048;8.468;2022-09-14T04:28:22;22.50;83.40
10538;DHT22;5317;49.048;8.468;2022-09-14T04:30:56;22.50;83.50
10538;DHT22;5317;49.048;8.468;2022-09-14T04:33:25;22.50;83.50
10538;DHT22;5317;49.048;8.468;2022-09-14T04:35:57;22.60;83.20
10538;DHT22;5317;49.048;8.468;2022-09-14T04:38:27;22.50;83.10
10538;DHT22;5317;49.048;8.468;2022-09-14T04:40:57;22.50;83.20
10538;DHT22;5317;49.048;8.468;2022-09-14T04:43:25;22.50;83.20
10538;DHT22;5317;49.048;8.468;2022-09-14T04:45:52;22.50;83.60
10538;DHT22;5317;49.048;8.468;2022-09-14T04:48:26;22.50;83.50
10538;DHT22;5317;49.048;8.468;2022-09-14T04:51:00;22.50;83.50
10538;DHT22;5317;49.048;8.468;2022-09-14T04:53:28;22.50;83.30
10538;DHT22;5317;49.048;8.468;2022-09-14T04:56:01;22.50;83.10
10538;DHT22;5317;49.048;8.468;2022-09-14T04:58:30;22.50;83.30
10538;DHT22;5317;49.048;8.468;2022-09-14T05:01:01;22.50;83.20
10538;DHT22;5317;49.048;8.468;2022-09-14T05:03:28;22.40;83.20
10538;DHT22;5317;49.048;8.468;2022-09-14T05:06:00;22.40;83.70
10538;DHT22;5317;49.048;8.468;2022-09-14T05:08:28;22.30;83.70
10538;DHT22;5317;49.048;8.468;2022-09-14T05:10:55;22.40;83.70
10538;DHT22;5317;49.048;8.468;2022-09-14T05:13:25;22.40;83.90
10538;DHT22;5317;49.048;8.468;2022-09-14T05:15:53;22.30;84.00
10538;DHT22;5317;49.048;8.468;2022-09-14T05:18:20;22.20;84.10
10538;DHT22;5317;49.048;8.468;2022-09-14T05:20:47;22.20;84.20
10538;DHT22;5317;49.048;8.468;2022-09-14T05:23:15;22.20;84.70
10538;DHT22;5317;49.048;8.468;2022-09-14T05:25:42;22.20;84.80
10538;DHT22;5317;49.048;8.468;2022-09-14T05:28:09;22.20;85.00
10538;DHT22;5317;49.048;8.468;2022-09-14T05:30:39;22.10;85.00
10538;DHT22;5317;49.048;8.468;2022-09-14T05:33:07;22.20;85.30
10538;DHT22;5317;49.048;8.468;2022-09-14T05:35:37;22.10;85.00
10538;DHT22;5317;49.048;8.468;2022-09-14T05:38:04;22.10;85.50
10538;DHT22;5317;49.048;8.468;2022-09-14T05:40:31;22.10;86.20
10538;DHT22;5317;49.048;8.468;2022-09-14T05:42:59;22.20;85.40
10538;DHT22;5317;49.048;8.468;2022-09-14T05:45:26;22.20;85.50
10538;DHT22;5317;49.048;8.468;2022-09-14T05:47:55;22.30;85.50
10538;DHT22;5317;49.048;8.468;2022-09-14T05:50:25;22.30;85.50
10538;DHT22;5317;49.048;8.468;2022-09-14T05:52:54;22.30;85.50
10538;DHT22;5317;49.048;8.468;2022-09-14T05:55:21;22.30;85.60
10538;DHT22;5317;49.048;8.468;2022-09-14T05:57:48;22.30;85.80
10538;DHT22;5317;49.048;8.468;2022-09-14T06:00:16;22.30;85.70
10538;DHT22;5317;49.048;8.468;2022-09-14T06:02:45;22.30;85.70
10538;DHT22;5317;49.048;8.468;2022-09-14T06:05:14;22.40;85.70
10538;DHT22;5317;49.048;8.468;2022-09-14T06:07:42;22.40;85.90
10538;DHT22;5317;49.048;8.468;2022-09-14T06:10:10;22.40;86.00
10538;DHT22;5317;49.048;8.468;2022-09-14T06:12:38;22.50;85.80
10538;DHT22;5317;49.048;8.468;2022-09-14T06:15:06;22.60;85.90
10538;DHT22;5317;49.048;8.468;2022-09-14T06:17:35;22.60;85.80
10538;DHT22;5317;49.048;8.468;2022-09-14T06:20:05;22.50;85.20
10538;DHT22;5317;49.048;8.468;2022-09-14T06:22:34;22.60;85.60
10538;DHT22;5317;49.048;8.468;2022-09-14T06:25:02;22.60;85.60
10538;DHT22;5317;49.048;8.468;2022-09-14T06:27:29;22.50;85.70
10538;DHT22;5317;49.048;8.468;2022-09-14T06:29:56;22.60;85.70
10538;DHT22;5317;49.048;8.468;2022-09-14T06:32:23;22.60;85.40
10538;DHT22;5317;49.048;8.468;2022-09-14T06:34:51;22.60;85.80
10538;DHT22;5317;49.048;8.468;2022-09-14T06:37:19;22.50;85.70
10538;DHT22;5317;49.048;8.468;2022-09-14T06:39:47;22.60;85.90
10538;DHT22;5317;49.048;8.468;2022-09-14T06:42:15;22.60;86.90
10538;DHT22;5317;49.048;8.468;2022-09-14T06:44:42;22.70;86.00
10538;DHT22;5317;49.048;8.468;2022-09-14T06:47:09;22.70;86.00
10538;DHT22;5317;49.048;8.468;2022-09-14T06:49:37;22.80;86.40
10538;DHT22;5317;49.048;8.468;2022-09-14T06:52:04;22.80;85.70
10538;DHT22;5317;49.048;8.468;2022-09-14T06:54:31;22.80;85.10
10538;DHT22;5317;49.048;8.468;2022-09-14T06:57:00;22.70;85.50
10538;DHT22;5317;49.048;8.468;2022-09-14T06:59:28;22.70;85.60
10538;DHT22;5317;49.048;8.468;2022-09-14T07:01:55;22.70;86.10
10538;DHT22;5317;49.048;8.468;2022-09-14T07:04:22;22.70;86.20
10538;DHT22;5317;49.048;8.468;2022-09-14T07:06:50;22.60;86.40
10538;DHT22;5317;49.048;8.468;2022-09-14T07:09:18;22.70;86.90
10538;DHT22;5317;49.048;8.468;2022-09-14T07:11:46;22.70;86.80
10538;DHT22;5317;49.048;8.468;2022-09-14T07:14:15;22.80;86.70
10538;DHT22;5317;49.048;8.468;2022-09-14T07:16:42;22.80;86.10
10538;DHT22;5317;49.048;8.468;2022-09-14T07:19:12;22.90;86.20
10538;DHT22;5317;49.048;8.468;2022-09-14T07:21:40;22.90;86.40
10538;DHT22;5317;49.048;8.468;2022-09-14T07:24:08;23.00;86.40
10538;DHT22;5317;49.048;8.468;2022-09-14T07:26:38;23.10;86.50
10538;DHT22;5317;49.048;8.468;2022-09-14T07:29:09;23.10;85.70
10538;DHT22;5317;49.048;8.468;2022-09-14T07:31:41;23.10;85.90
10538;DHT22;5317;49.048;8.468;2022-09-14T07:34:11;23.10;86.20
10538;DHT22;5317;49.048;8.468;2022-09-14T07:36:39;23.10;86.40
10538;DHT22;5317;49.048;8.468;2022-09-14T07:39:09;23.20;86.60
10538;DHT22;5317;49.048;8.468;2022-09-14T07:41:38;23.30;85.70
10538;DHT22;5317;49.048;8.468;2022-09-14T07:44:06;23.20;85.70
10538;DHT22;5317;49.048;8.468;2022-09-14T07:46:37;23.10;86.40
10538;DHT22;5317;49.048;8.468;2022-09-14T07:49:09;23.10;86.60
10538;DHT22;5317;49.048;8.468;2022-09-14T07:51:37;23.10;87.30
10538;DHT22;5317;49.048;8.468;2022-09-14T07:54:07;23.20;87.60
10538;DHT22;5317;49.048;8.468;2022-09-14T07:56:37;23.30;87.90
10538;DHT22;5317;49.048;8.468;2022-09-14T07:59:05;23.40;87.80
10538;DHT22;5317;49.048;8.468;2022-09-14T08:01:32;23.40;87.40
10538;DHT22;5317;49.048;8.468;2022-09-14T08:04:01;23.40;87.50
10538;DHT22;5317;49.048;8.468;2022-09-14T08:06:30;23.50;87.60
10538;DHT22;5317;49.048;8.468;2022-09-14T08:08:57;23.60;87.30
10538;DHT22;5317;49.048;8.468;2022-09-14T08:11:26;23.80;87.20
10538;DHT22;5317;49.048;8.468;2022-09-14T08:13:57;23.70;86.90
10538;DHT22;5317;49.048;8.468;2022-09-14T08:16:27;23.70;87.90
10538;DHT22;5317;49.048;8.468;2022-09-14T08:18:57;23.70;87.20
10538;DHT22;5317;49.048;8.468;2022-09-14T08:21:29;23.70;87.30
10538;DHT22;5317;49.048;8.468;2022-09-14T08:23:58;23.80;87.90
10538;DHT22;5317;49.048;8.468;2022-09-14T08:26:27;23.80;88.30
10538;DHT22;5317;49.048;8.468;2022-09-14T08:28:55;23.80;88.10
10538;DHT22;5317;49.048;8.468;2022-09-14T08:31:26;24.00;88.20
10538;DHT22;5317;49.048;8.468;2022-09-14T08:33:55;24.20;87.90
10538;DHT22;5317;49.048;8.468;2022-09-14T08:36:27;24.40;86.90
10538;DHT22;5317;49.048;8.468;2022-09-14T08:38:58;24.60;86.40
10538;DHT22;5317;49.048;8.468;2022-09-14T08:41:28;24.80;86.40
10538;DHT22;5317;49.048;8.468;2022-09-14T08:43:59;24.90;86.40
10538;DHT22;5317;49.048;8.468;2022-09-14T08:46:31;25.10;85.80
10538;DHT22;5317;49.048;8.468;2022-09-14T08:49:04;25.20;85.50
10538;DHT22;5317;49.048;8.468;2022-09-14T08:51:41;25.40;84.10
10538;DHT22;5317;49.048;8.468;2022-09-14T08:54:09;25.60;83.80
10538;DHT22;5317;49.048;8.468;2022-09-14T08:56:39;25.70;83.40
10538;DHT22;5317;49.048;8.468;2022-09-14T08:59:27;25.90;82.80
10538;DHT22;5317;49.048;8.468;2022-09-14T09:02:20;26.00;82.00
10538;DHT22;5317;49.048;8.468;2022-09-14T09:05:01;25.80;81.60
10538;DHT22;5317;49.048;8.468;2022-09-14T09:07:49;26.00;82.00
10538;DHT22;5317;49.048;8.468;2022-09-14T09:10:24;26.10;80.90
10538;DHT22;5317;49.048;8.468;2022-09-14T09:12:56;26.20;81.00
10538;DHT22;5317;49.048;8.468;2022-09-14T09:15:28;26.10;80.70
10538;DHT22;5317;49.048;8.468;2022-09-14T09:18:01;25.90;79.60
10538;DHT22;5317;49.048;8.468;2022-09-14T09:20:34;25.80;80.20
10538;DHT22;5317;49.048;8.468;2022-09-14T09:23:12;25.70;80.50
10538;DHT22;5317;49.048;8.468;2022-09-14T09:25:49;25.70;80.60
10538;DHT22;5317;49.048;8.468;2022-09-14T09:28:21;25.80;80.90
10538;DHT22;5317;49.048;8.468;2022-09-14T09:30:49;25.80;80.00
10538;DHT22;5317;49.048;8.468;2022-09-14T09:33:20;25.70;80.20
10538;DHT22;5317;49.048;8.468;2022-09-14T09:35:49;25.70;80.20
10538;DHT22;5317;49.048;8.468;2022-09-14T09:38:20;25.80;79.80
10538;DHT22;5317;49.048;8.468;2022-09-14T09:40:53;25.90;80.10
10538;DHT22;5317;49.048;8.468;2022-09-14T09:43:23;26.10;79.90
10538;DHT22;5317;49.048;8.468;2022-09-14T09:45:58;26.20;78.90
10538;DHT22;5317;49.048;8.468;2022-09-14T09:48:30;26.40;79.50
10538;DHT22;5317;49.048;8.468;2022-09-14T09:51:03;26.70;78.70
10538;DHT22;5317;49.048;8.468;2022-09-14T09:53:37;26.90;77.50
10538;DHT22;5317;49.048;8.468;2022-09-14T09:56:17;27.00;76.20
10538;DHT22;5317;49.048;8.468;2022-09-14T09:58:46;27.10;75.90
10538;DHT22;5317;49.048;8.468;2022-09-14T10:01:19;27.20;75.90
10538;DHT22;5317;49.048;8.468;2022-09-14T10:04:04;27.40;75.70
10538;DHT22;5317;49.048;8.468;2022-09-14T10:06:42;27.60;75.40
10538;DHT22;5317;49.048;8.468;2022-09-14T10:09:14;27.70;74.10
10538;DHT22;5317;49.048;8.468;2022-09-14T10:11:45;27.70;73.90
10538;DHT22;5317;49.048;8.468;2022-09-14T10:14:22;27.80;73.30
10538;DHT22;5317;49.048;8.468;2022-09-14T10:16:52;28.00;72.90
10538;DHT22;5317;49.048;8.468;2022-09-14T10:19:30;28.10;71.70
10538;DHT22;5317;49.048;8.468;2022-09-14T10:22:11;28.10;71.70
10538;DHT22;5317;49.048;8.468;2022-09-14T10:24:54;28.20;71.30
10538;DHT22;5317;49.048;8.468;2022-09-14T10:27:35;28.30;69.40
10538;DHT22;5317;49.048;8.468;2022-09-14T10:30:08;28.30;70.20
10538;DHT22;5317;49.048;8.468;2022-09-14T10:32:45;28.40;69.50
10538;DHT22;5317;49.048;8.468;2022-09-14T10:35:18;28.40;68.90
10538;DHT22;5317;49.048;8.468;2022-09-14T10:37:59;28.50;69.00
10538;DHT22;5317;49.048;8.468;2022-09-14T10:40:49;28.50;69.00
10538;DHT22;5317;49.048;8.468;2022-09-14T10:43:34;28.70;68.50
10538;DHT22;5317;49.048;8.468;2022-09-14T10:46:12;28.80;67.70
10538;DHT22;5317;49.048;8.468;2022-09-14T10:48:59;28.90;67.00
10538;DHT22;5317;49.048;8.468;2022-09-14T10:51:44;28.80;66.90
10538;DHT22;5317;49.048;8.468;2022-09-14T10:54:40;28.80;65.70
10538;DHT22;5317;49.048;8.468;2022-09-14T10:57:38;29.00;65.10
10538;DHT22;5317;49.048;8.468;2022-09-14T11:00:15;28.90;64.10
10538;DHT22;5317;49.048;8.468;2022-09-14T11:03:08;29.00;64.30
10538;DHT22;5317;49.048;8.468;2022-09-14T11:05:53;29.10;64.70
10538;DHT22;5317;49.048;8.468;2022-09-14T11:08:31;29.40;64.90
10538;DHT22;5317;49.048;8.468;2022-09-14T11:11:29;29.70;63.70
10538;DHT22;5317;49.048;8.468;2022-09-14T11:17:35;29.90;61.90
10538;DHT22;5317;49.048;8.468;2022-09-14T11:20:26;30.10;61.90
10538;DHT22;5317;49.048;8.468;2022-09-14T11:23:13;30.20;61.20
10538;DHT22;5317;49.048;8.468;2022-09-14T11:25:55;30.10;61.30
10538;DHT22;5317;49.048;8.468;2022-09-14T11:28:29;30.10;62.00
10538;DHT22;5317;49.048;8.468;2022-09-14T11:31:05;30.10;60.90
10538;DHT22;5317;49.048;8.468;2022-09-14T11:33:41;29.90;61.60
10538;DHT22;5317;49.048;8.468;2022-09-14T11:36:16;29.90;62.50
10538;DHT22;5317;49.048;8.468;2022-09-14T11:38:51;29.70;61.50
10538;DHT22;5317;49.048;8.468;2022-09-14T11:41:26;29.50;62.70
10538;DHT22;5317;49.048;8.468;2022-09-14T11:44:02;29.40;63.70
10538;DHT22;5317;49.048;8.468;2022-09-14T11:46:41;29.40;63.40
10538;DHT22;5317;49.048;8.468;2022-09-14T11:49:16;29.30;63.20
10538;DHT22;5317;49.048;8.468;2022-09-14T11:51:51;29.20;64.10
10538;DHT22;5317;49.048;8.468;2022-09-14T11:54:24;29.20;63.20
10538;DHT22;5317;49.048;8.468;2022-09-14T11:56:53;29.00;63.50
10538;DHT22;5317;49.048;8.468;2022-09-14T11:59:48;28.90;64.10
10538;DHT22;5317;49.048;8.468;2022-09-14T12:05:39;28.70;65.10
10538;DHT22;5317;49.048;8.468;2022-09-14T12:08:36;28.70;65.30
10538;DHT22;5317;49.048;8.468;2022-09-14T12:11:32;28.50;63.30
10538;DHT22;5317;49.048;8.468;2022-09-14T12:14:29;28.40;64.00
10538;DHT22;5317;49.048;8.468;2022-09-14T12:17:20;28.30;64.50
10538;DHT22;5317;49.048;8.468;2022-09-14T12:19:51;28.30;64.30
10538;DHT22;5317;49.048;8.468;2022-09-14T12:22:30;28.30;64.50
10538;DHT22;5317;49.048;8.468;2022-09-14T12:25:02;28.20;64.90
10538;DHT22;5317;49.048;8.468;2022-09-14T12:27:41;28.10;65.10
10538;DHT22;5317;49.048;8.468;2022-09-14T12:30:34;28.00;65.70
10538;DHT22;5317;49.048;8.468;2022-09-14T12:37:00;27.80;66.40
10538;DHT22;5317;49.048;8.468;2022-09-14T12:39:31;27.70;67.60
10538;DHT22;5317;49.048;8.468;2022-09-14T12:44:53;27.10;70.90
10538;DHT22;5317;49.048;8.468;2022-09-14T12:50:27;25.70;75.00
10538;DHT22;5317;49.048;8.468;2022-09-14T12:53:24;24.70;77.10
10538;DHT22;5317;49.048;8.468;2022-09-14T12:56:03;24.20;75.90
10538;DHT22;5317;49.048;8.468;2022-09-14T12:58:53;23.90;78.70
10538;DHT22;5317;49.048;8.468;2022-09-14T13:01:36;23.80;79.70
10538;DHT22;5317;49.048;8.468;2022-09-14T13:04:13;23.80;80.70
10538;DHT22;5317;49.048;8.468;2022-09-14T13:06:46;23.50;80.30
10538;DHT22;5317;49.048;8.468;2022-09-14T13:09:19;23.30;81.80
10538;DHT22;5317;49.048;8.468;2022-09-14T13:11:52;23.20;83.10
10538;DHT22;5317;49.048;8.468;2022-09-14T13:14:25;23.10;83.70
10538;DHT22;5317;49.048;8.468;2022-09-14T13:16:57;23.00;84.20
10538;DHT22;5317;49.048;8.468;2022-09-14T13:19:29;23.00;84.90
10538;DHT22;5317;49.048;8.468;2022-09-14T13:21:58;23.10;84.90
10538;DHT22;5317;49.048;8.468;2022-09-14T13:24:30;23.10;85.40
10538;DHT22;5317;49.048;8.468;2022-09-14T13:27:04;23.10;85.10
10538;DHT22;5317;49.048;8.468;2022-09-14T13:29:40;23.10;85.10
10538;DHT22;5317;49.048;8.468;2022-09-14T13:32:12;23.20;85.00
10538;DHT22;5317;49.048;8.468;2022-09-14T13:34:44;23.20;86.80
10538;DHT22;5317;49.048;8.468;2022-09-14T13:37:12;23.20;85.60
10538;DHT22;5317;49.048;8.468;2022-09-14T13:39:48;23.20;86.10
10538;DHT22;5317;49.048;8.468;2022-09-14T13:42:18;23.30;86.70
10538;DHT22;5317;49.048;8.468;2022-09-14T13:44:46;23.30;87.50
10538;DHT22;5317;49.048;8.468;2022-09-14T13:47:15;23.30;87.00
10538;DHT22;5317;49.048;8.468;2022-09-14T13:49:46;23.40;86.90
10538;DHT22;5317;49.048;8.468;2022-09-14T13:52:30;23.30;87.30
10538;DHT22;5317;49.048;8.468;2022-09-14T13:55:16;23.40;87.60
10538;DHT22;5317;49.048;8.468;2022-09-14T13:58:13;23.40;87.90
10538;DHT22;5317;49.048;8.468;2022-09-14T14:03:36;23.50;87.20
10538;DHT22;5317;49.048;8.468;2022-09-14T14:06:22;23.50;87.00
10538;DHT22;5317;49.048;8.468;2022-09-14T14:08:57;23.50;87.70
10538;DHT22;5317;49.048;8.468;2022-09-14T14:11:35;23.50;87.30
10538;DHT22;5317;49.048;8.468;2022-09-14T14:14:10;23.50;87.10
10538;DHT22;5317;49.048;8.468;2022-09-14T14:17:20;23.50;86.90
10538;DHT22;5317;49.048;8.468;2022-09-14T14:19:51;23.50;87.00
10538;DHT22;5317;49.048;8.468;2022-09-14T14:22:25;23.40;86.40
10538;DHT22;5317;49.048;8.468;2022-09-14T14:24:54;23.40;86.80
10538;DHT22;5317;49.048;8.468;2022-09-14T14:27:30;23.50;86.90
10538;DHT22;5317;49.048;8.468;2022-09-14T14:30:01;23.50;86.90
10538;DHT22;5317;49.048;8.468;2022-09-14T14:32:38;23.60;86.40
10538;DHT22;5317;49.048;8.468;2022-09-14T14:35:11;23.60;86.30
10538;DHT22;5317;49.048;8.468;2022-09-14T14:37:41;23.60;85.70
10538;DHT22;5317;49.048;8.468;2022-09-14T14:40:10;23.50;86.10
10538;DHT22;5317;49.048;8.468;2022-09-14T14:42:40;23.50;86.10
10538;DHT22;5317;49.048;8.468;2022-09-14T14:45:12;23.50;86.10
10538;DHT22;5317;49.048;8.468;2022-09-14T14:47:44;23.50;86.40
10538;DHT22;5317;49.048;8.468;2022-09-14T14:50:13;23.50;86.20
10538;DHT22;5317;49.048;8.468;2022-09-14T14:52:41;23.50;86.20
10538;DHT22;5317;49.048;8.468;2022-09-14T14:55:09;23.60;86.10
10538;DHT22;5317;49.048;8.468;2022-09-14T14:57:36;23.60;86.40
10538;DHT22;5317;49.048;8.468;2022-09-14T15:00:12;23.60;86.30
10538;DHT22;5317;49.048;8.468;2022-09-14T15:02:41;23.50;86.90
10538;DHT22;5317;49.048;8.468;2022-09-14T15:05:09;23.50;86.60
10538;DHT22;5317;49.048;8.468;2022-09-14T15:07:37;23.60;87.00
10538;DHT22;5317;49.048;8.468;2022-09-14T15:10:06;23.70;86.40
10538;DHT22;5317;49.048;8.468;2022-09-14T15:12:34;23.80;86.70
10538;DHT22;5317;49.048;8.468;2022-09-14T15:15:01;23.80;86.60
10538;DHT22;5317;49.048;8.468;2022-09-14T15:17:30;23.80;86.50
10538;DHT22;5317;49.048;8.468;2022-09-14T15:19:58;23.90;86.40
10538;DHT22;5317;49.048;8.468;2022-09-14T15:22:25;23.90;86.10
10538;DHT22;5317;49.048;8.468;2022-09-14T15:24:52;24.10;85.70
10538;DHT22;5317;49.048;8.468;2022-09-14T15:27:19;24.20;84.90
10538;DHT22;5317;49.048;8.468;2022-09-14T15:29:46;24.30;83.60
10538;DHT22;5317;49.048;8.468;2022-09-14T15:32:15;24.40;82.70
10538;DHT22;5317;49.048;8.468;2022-09-14T15:34:44;24.50;82.50
10538;DHT22;5317;49.048;8.468;2022-09-14T15:37:11;24.60;82.20
10538;DHT22;5317;49.048;8.468;2022-09-14T15:39:39;24.80;81.60
10538;DHT22;5317;49.048;8.468;2022-09-14T15:42:08;25.00;80.70
10538;DHT22;5317;49.048;8.468;2022-09-14T15:44:35;25.10;80.00
10538;DHT22;5317;49.048;8.468;2022-09-14T15:47:03;25.10;79.80
10538;DHT22;5317;49.048;8.468;2022-09-14T15:49:30;25.20;80.20
10538;DHT22;5317;49.048;8.468;2022-09-14T15:51:59;25.30;80.40
10538;DHT22;5317;49.048;8.468;2022-09-14T15:54:30;25.50;79.10
10538;DHT22;5317;49.048;8.468;2022-09-14T15:56:59;25.60;79.00
10538;DHT22;5317;49.048;8.468;2022-09-14T15:59:28;25.80;77.80
10538;DHT22;5317;49.048;8.468;2022-09-14T16:01:56;25.70;77.20
10538;DHT22;5317;49.048;8.468;2022-09-14T16:04:23;25.70;78.20
10538;DHT22;5317;49.048;8.468;2022-09-14T16:06:50;25.60;77.10
10538;DHT22;5317;49.048;8.468;2022-09-14T16:09:19;25.50;77.30
10538;DHT22;5317;49.048;8.468;2022-09-14T16:11:47;25.40;77.60
10538;DHT22;5317;49.048;8.468;2022-09-14T16:14:17;25.30;78.40
10538;DHT22;5317;49.048;8.468;2022-09-14T16:16:44;25.10;77.50
10538;DHT22;5317;49.048;8.468;2022-09-14T16:19:13;25.00;78.50
10538;DHT22;5317;49.048;8.468;2022-09-14T16:21:41;25.00;79.10
10538;DHT22;5317;49.048;8.468;2022-09-14T16:24:10;24.90;78.80
10538;DHT22;5317;49.048;8.468;2022-09-14T16:26:41;24.90;79.70
10538;DHT22;5317;49.048;8.468;2022-09-14T16:29:11;24.90;80.10
10538;DHT22;5317;49.048;8.468;2022-09-14T16:31:41;24.70;80.40
10538;DHT22;5317;49.048;8.468;2022-09-14T16:34:13;24.70;79.80
10538;DHT22;5317;49.048;8.468;2022-09-14T16:36:42;24.70;80.70
10538;DHT22;5317;49.048;8.468;2022-09-14T16:39:12;24.60;81.30
10538;DHT22;5317;49.048;8.468;2022-09-14T16:41:42;24.60;80.40